*주의사항
아래 정보는 실제 정보와 다를 수 있습니다.

ZSPD 공항 정보

활주로 정보
활주로 16R 길이 12467 ft 너비 197 ft 표고(높이) 12 ft 활주로 시단 N/A 방향 162
활주로 34L 길이 12467 ft 너비 197 ft 표고(높이) 12 ft 활주로 시단 N/A 방향 342
활주로 17L 길이 13123 ft 너비 197 ft 표고(높이) 10 ft 활주로 시단 N/A 방향 162
활주로 35R 길이 13123 ft 너비 197 ft 표고(높이) 10 ft 활주로 시단 N/A 방향 342
활주로 16L 길이 12467 ft 너비 197 ft 표고(높이) 11 ft 활주로 시단 N/A 방향 162
활주로 34R 길이 12467 ft 너비 197 ft 표고(높이) 11 ft 활주로 시단 N/A 방향 342
활주로 17R 길이 11154 ft 너비 197 ft 표고(높이) 12 ft 활주로 시단 N/A 방향 162
활주로 35L 길이 11154 ft 너비 197 ft 표고(높이) 12 ft 활주로 시단 N/A 방향 342
공항 주파수
유형 APP 명칭 SHANGHAI A 주파수 119.75 MHZ
유형 APP 명칭 SHANGHAI A 주파수 120.3 MHZ
유형 APP 명칭 SHAINGHAI 주파수 121.3 MHZ
유형 APP 명칭 SHANGHAI A 주파수 123.8 MHZ
유형 ATIS 명칭 ATIS 주파수 127.85 MHZ
유형 CLD 명칭 DEL 주파수 121.95 MHZ
유형 GND 명칭 GND EAST 주파수 121.8 MHZ
유형 GND 명칭 GND WEST 주파수 121.65 MHZ
유형 TWR 명칭 TWR EAST 주파수 118.4 MHZ
유형 TWR 명칭 TWR WEST 주파수 118.8 MHZ
공항 주파수
유형 VOR-DME 명칭 Hengsha 주파수 114400 KHZ
유형 VOR-DME 명칭 Nanhui 주파수 114600 KHZ
유형 VOR-DME 명칭 Liuzao 주파수 109400 KHZ
유형 VOR-DME 명칭 Pudong 주파수 116900 KHZ
유형 VOR-DME 명칭 Shuyuan 주파수 113600 KHZ
공항 날씨 정보 및 노탐
ADDS - METARS form results

(0659 UTC 02 October 2023)
Data provider http://aviationweather.gov/metar/data/
 
METAR text: ZSPD 020630Z 07006MPS 040V100 CAVOK 25/14 Q1016 NOSIG
Conditions at: ZSPD (SHANGHAI/PUDONG , CN) observed 0630 UTC 02 October 2023
Temperature: 25.0°C (77°F)
Dewpoint: 14.0°C (57°F) [RH = 50%]
Pressure (altimeter): 30.00 inches Hg (1016.0 mb)
Winds: from the ENE (70 degrees) at 14 MPH (12 knots; 6.2 m/s)
Visibility: 6 or more miles (10+ km)
Ceiling: ceiling and visibility are OK
Clouds: unknown
Weather: no significant weather observed at this time

METAR text: ZSPD 020600Z 05006MPS 030V090 CAVOK 26/15 Q1016 NOSIG
Conditions at: ZSPD (SHANGHAI/PUDONG , CN) observed 0600 UTC 02 October 2023
Temperature: 26.0°C (79°F)
Dewpoint: 15.0°C (59°F) [RH = 51%]
Pressure (altimeter): 30.00 inches Hg (1016.0 mb)
Winds: from the NE (50 degrees) at 14 MPH (12 knots; 6.2 m/s)
Visibility: 6 or more miles (10+ km)
Ceiling: ceiling and visibility are OK
Clouds: unknown
Weather: no significant weather observed at this time

Forecast for: ZSPD (SHANGHAI/PUDONG , CN)
Text: TAF ZSPD 020304Z 0206/0306 06005MPS 6000 BKN020 TX26/0206Z TN20/0221Z
Forecast period: 0600 UTC 02 October 2023 to 0600 UTC 03 October 2023
Forecast type: FROM: standard forecast or significant change
Winds: from the ENE (60 degrees) at 12 MPH (10 knots; 5.1 m/s)
Visibility: 4 miles (6 km)
Ceiling: 2000 feet AGL
Clouds: broken clouds at 2000 feet AGL
Weather: no significant weather forecast for this period